Time;durP1;ratioP1;P1;durP2;ratioP2;P2;SDS_P1;SDS_P2;PMS_P1;PMS_P2;Temp;Humidity;BMP_temperature;BMP_pressure;BME280_temperature;BME280_humidity;BME280_pressure;Samples;Min_cycle;Max_cycle;Signal;HPM_P1;HPM_P2
2023/06/29 00:01:26;;;;;;;5.18;3.20;;;;;;;18.37;70.36;100358.06;5072568;28;20035;-67
2023/06/29 00:03:52;;;;;;;6.65;2.90;;;;;;;18.34;70.40;100360.28;5075482;28;20040;-67
2023/06/29 00:06:18;;;;;;;4.43;3.00;;;;;;;18.19;70.62;100345.81;5079942;28;20047;-68
2023/06/29 00:08:43;;;;;;;8.52;3.65;;;;;;;18.27;70.84;100364.75;5077922;28;20543;-69
2023/06/29 00:11:09;;;;;;;5.60;3.45;;;;;;;18.25;71.16;100367.63;5067464;28;20491;-67
2023/06/29 00:13:35;;;;;;;4.75;3.55;;;;;;;18.18;71.26;100357.72;5072190;28;20036;-67
2023/06/29 00:16:00;;;;;;;5.68;3.35;;;;;;;18.19;71.66;100359.41;5068611;28;20027;-67
2023/06/29 00:18:30;;;;;;;6.57;3.70;;;;;;;18.21;71.92;100376.34;5071522;28;20029;-66
2023/06/29 00:20:57;;;;;;;8.80;4.63;;;;;;;18.15;71.95;100369.75;5076266;28;20455;-67
2023/06/29 00:23:24;;;;;;;6.93;3.50;;;;;;;18.02;72.43;100362.22;5083188;28;20061;-66
2023/06/29 00:25:52;;;;;;;4.35;3.60;;;;;;;18.08;72.93;100368.81;5067299;28;20048;-67
2023/06/29 00:28:18;;;;;;;7.55;3.55;;;;;;;17.96;72.45;100354.81;5052314;28;20027;-66
2023/06/29 00:30:44;;;;;;;6.03;3.70;;;;;;;18.01;73.05;100365.97;5078288;28;20478;-67
2023/06/29 00:33:09;;;;;;;5.75;4.15;;;;;;;18.01;73.17;100363.28;5082849;28;20039;-67
2023/06/29 00:35:35;;;;;;;9.77;4.10;;;;;;;17.99;73.42;100364.44;5066178;28;20127;-66
2023/06/29 00:38:00;;;;;;;5.05;3.25;;;;;;;17.99;73.43;100359.03;5052029;28;20097;-67
2023/06/29 00:40:26;;;;;;;4.70;3.78;;;;;;;17.98;73.28;100369.06;5070791;28;20476;-66
2023/06/29 00:42:52;;;;;;;6.90;3.58;;;;;;;17.98;73.63;100360.06;5071511;28;20020;-67
2023/06/29 00:45:17;;;;;;;7.20;3.83;;;;;;;17.95;73.55;100360.41;5079670;28;20108;-67
2023/06/29 00:47:43;;;;;;;7.82;3.70;;;;;;;17.87;73.94;100352.34;5073327;28;20107;-66
2023/06/29 00:50:09;;;;;;;5.75;3.58;;;;;;;17.80;73.78;100340.53;5080166;28;20032;-66
2023/06/29 00:52:35;;;;;;;6.95;3.75;;;;;;;17.91;74.34;100359.94;5071461;28;20036;-67
2023/06/29 00:55:02;;;;;;;5.72;3.92;;;;;;;17.90;74.14;100352.00;5074504;28;20632;-66
2023/06/29 00:57:29;;;;;;;5.60;3.70;;;;;;;17.79;74.28;100342.38;5076312;28;20089;-67
2023/06/29 00:59:59;;;;;;;6.45;3.47;;;;;;;17.84;74.45;100358.13;5077108;28;20079;-66
2023/06/29 01:02:25;;;;;;;4.45;3.70;;;;;;;17.81;74.45;100356.63;5069929;28;20045;-66
2023/06/29 01:04:51;;;;;;;8.38;4.40;;;;;;;17.80;74.62;100356.81;5068898;28;20040;-67
2023/06/29 01:07:30;;;;;;;5.13;3.75;;;;;;;17.76;74.70;100352.75;5070643;28;20074;-67
2023/06/29 01:09:58;;;;;;;6.53;3.97;;;;;;;17.74;74.94;100349.38;5077167;28;20028;-67
2023/06/29 01:12:25;;;;;;;5.53;3.65;;;;;;;17.72;75.28;100346.84;5057594;28;20051;-67
2023/06/29 01:14:51;;;;;;;5.88;3.42;;;;;;;17.65;75.07;100335.03;5071795;28;20028;-68
2023/06/29 01:17:22;;;;;;;4.80;3.67;;;;;;;17.67;75.59;100345.72;5079172;28;20032;-67
2023/06/29 01:19:50;;;;;;;5.80;3.58;;;;;;;17.62;75.66;100337.25;5077562;28;20024;-67
2023/06/29 01:22:29;;;;;;;6.38;3.30;;;;;;;17.65;75.45;100345.03;5078933;28;20491;-67
2023/06/29 01:24:55;;;;;;;4.63;3.63;;;;;;;17.59;75.84;100338.47;5061160;28;20040;-67
2023/06/29 01:27:22;;;;;;;5.75;3.33;;;;;;;17.56;75.70;100344.25;5088208;28;20399;-67
2023/06/29 01:29:47;;;;;;;9.00;3.88;;;;;;;17.59;75.96;100334.91;5074385;28;20040;-69
2023/06/29 01:32:14;;;;;;;6.45;3.67;;;;;;;17.58;75.87;100334.03;5073488;28;20028;-67
2023/06/29 01:34:40;;;;;;;6.85;3.47;;;;;;;17.57;75.57;100334.22;5063696;28;20029;-66
2023/06/29 01:37:18;;;;;;;7.18;3.50;;;;;;;17.44;76.01;100310.41;5069716;28;20036;-67
2023/06/29 01:39:49;;;;;;;5.05;3.28;;;;;;;17.55;75.90;100337.13;5083584;28;20089;-66
2023/06/29 01:42:16;;;;;;;8.57;3.45;;;;;;;17.56;75.64;100337.97;5079736;28;20031;-66
2023/06/29 01:44:42;;;;;;;6.97;3.72;;;;;;;17.44;75.60;100323.09;5080038;28;20020;-67
2023/06/29 01:47:10;;;;;;;5.95;3.47;;;;;;;17.53;75.83;100332.88;5080023;28;20485;-66
2023/06/29 01:49:36;;;;;;;4.57;2.95;;;;;;;17.36;75.73;100307.72;5084483;28;20360;-66
2023/06/29 01:52:05;;;;;;;7.13;3.30;;;;;;;17.47;76.29;100331.75;5077669;28;20436;-67
2023/06/29 01:54:31;;;;;;;7.55;3.97;;;;;;;17.47;76.07;100333.59;5073866;28;20378;-67
2023/06/29 01:56:57;;;;;;;5.40;3.10;;;;;;;17.46;76.22;100335.50;5083238;28;20107;-67
2023/06/29 01:59:22;;;;;;;6.60;3.53;;;;;;;17.34;76.46;100319.75;5077589;28;20463;-67
2023/06/29 02:01:48;;;;;;;4.68;3.05;;;;;;;17.39;76.69;100326.34;5075176;28;20028;-67
2023/06/29 02:04:13;;;;;;;5.72;3.30;;;;;;;17.33;76.48;100328.91;5075693;28;20044;-67
2023/06/29 02:06:38;;;;;;;5.15;3.38;;;;;;;17.36;77.07;100333.97;5075568;28;20028;-67
2023/06/29 02:09:04;;;;;;;4.00;3.10;;;;;;;17.31;77.28;100336.38;5086359;28;20032;-66
2023/06/29 02:11:29;;;;;;;4.50;3.35;;;;;;;17.23;77.08;100318.31;5085227;28;20468;-67
2023/06/29 02:13:55;;;;;;;5.75;3.50;;;;;;;17.31;77.29;100336.38;5075100;28;20097;-67
2023/06/29 02:16:20;;;;;;;4.93;3.50;;;;;;;17.27;77.30;100335.91;5077103;28;20082;-67
2023/06/29 02:18:46;;;;;;;5.35;3.15;;;;;;;17.16;77.54;100313.75;5075670;28;20028;-68
2023/06/29 02:21:12;;;;;;;11.93;3.45;;;;;;;17.24;77.65;100327.25;5077470;28;20031;-67
2023/06/29 02:23:37;;;;;;;3.72;3.00;;;;;;;17.19;78.21;100324.25;5073270;28;20066;-66
2023/06/29 02:26:03;;;;;;;5.28;3.00;;;;;;;17.17;77.93;100327.13;5074579;28;20144;-67
2023/06/29 02:28:28;;;;;;;4.32;2.83;;;;;;;17.07;78.32;100312.09;5077744;28;20395;-67
2023/06/29 02:30:53;;;;;;;4.90;3.05;;;;;;;17.08;78.18;100324.63;5075855;28;20514;-66
2023/06/29 02:33:19;;;;;;;6.43;3.40;;;;;;;17.08;78.79;100330.91;5075738;28;20038;-67
2023/06/29 02:35:44;;;;;;;3.47;3.03;;;;;;;17.08;78.57;100321.91;5076431;28;20043;-66
2023/06/29 02:38:10;;;;;;;4.32;2.80;;;;;;;17.09;78.04;100323.63;5078293;28;20105;-67
2023/06/29 02:40:35;;;;;;;5.88;2.65;;;;;;;17.13;77.98;100327.66;5074969;28;20426;-67
2023/06/29 02:43:00;;;;;;;4.88;2.95;;;;;;;17.14;77.81;100329.34;5075583;28;20498;-66
2023/06/29 02:45:26;;;;;;;8.75;3.10;;;;;;;17.07;77.79;100320.22;5077326;28;20487;-67
2023/06/29 02:47:51;;;;;;;4.40;3.30;;;;;;;17.14;77.30;100340.19;5080214;28;20031;-67
2023/06/29 02:50:17;;;;;;;5.80;2.80;;;;;;;17.10;77.59;100339.72;5075412;28;20081;-65
2023/06/29 02:52:42;;;;;;;6.43;2.83;;;;;;;17.07;78.08;100348.19;5075830;28;20077;-67
2023/06/29 02:55:08;;;;;;;5.57;2.97;;;;;;;16.99;78.24;100331.94;5061467;28;20028;-67
2023/06/29 02:57:33;;;;;;;5.05;2.80;;;;;;;16.96;78.04;100332.28;5076008;28;20036;-67
2023/06/29 02:59:58;;;;;;;6.78;2.67;;;;;;;17.02;77.80;100342.44;5082211;28;20039;-65
2023/06/29 03:02:24;;;;;;;4.25;2.75;;;;;;;17.02;77.98;100344.28;5077942;28;20020;-65
2023/06/29 03:04:49;;;;;;;4.40;2.83;;;;;;;17.01;77.74;100351.59;5072024;28;20491;-65
2023/06/29 03:07:15;;;;;;;5.70;2.80;;;;;;;16.98;78.09;100345.66;5074424;28;20107;-66
2023/06/29 03:09:40;;;;;;;7.78;2.90;;;;;;;16.97;78.40;100344.84;5073947;28;20097;-68
2023/06/29 03:12:08;;;;;;;5.10;2.63;;;;;;;17.01;77.83;100351.59;5074382;28;20032;-67
2023/06/29 03:14:34;;;;;;;3.95;3.10;;;;;;;17.03;77.82;100354.94;5073718;28;20039;-66
2023/06/29 03:16:59;;;;;;;3.95;2.60;;;;;;;17.03;78.00;100354.13;5054587;28;20040;-66
2023/06/29 03:19:25;;;;;;;4.50;2.97;;;;;;;16.98;78.34;100341.09;5061172;28;20032;-66
2023/06/29 03:21:50;;;;;;;3.75;2.85;;;;;;;17.01;78.47;100345.31;5059925;28;20040;-66
2023/06/29 03:24:16;;;;;;;6.13;3.08;;;;;;;17.02;78.35;100336.16;5072551;28;20047;-67
2023/06/29 03:26:41;;;;;;;4.57;2.88;;;;;;;17.01;78.66;100337.19;5074065;28;20047;-67
2023/06/29 03:29:06;;;;;;;6.00;2.60;;;;;;;17.03;78.45;100344.13;5081142;28;20113;-66
2023/06/29 03:31:33;;;;;;;3.25;2.63;;;;;;;17.05;78.45;100341.22;5056590;28;20111;-67
2023/06/29 03:33:59;;;;;;;6.07;3.03;;;;;;;16.99;78.81;100337.34;5075952;28;20040;-67
2023/06/29 03:36:24;;;;;;;4.78;3.00;;;;;;;17.01;79.07;100337.19;5051946;28;20066;-67
2023/06/29 03:38:50;;;;;;;4.25;2.85;;;;;;;17.04;78.65;100339.56;5079321;28;20038;-67
2023/06/29 03:41:15;;;;;;;4.90;3.03;;;;;;;16.99;79.04;100331.13;5075993;28;20119;-67
2023/06/29 03:43:41;;;;;;;2.83;2.45;;;;;;;17.13;79.19;100357.47;5078952;28;20103;-67
2023/06/29 03:46:06;;;;;;;4.55;2.85;;;;;;;17.17;78.64;100356.94;5053177;28;20097;-66
2023/06/29 03:48:31;;;;;;;4.20;2.90;;;;;;;17.15;78.84;100345.44;5063809;28;20460;-67
2023/06/29 03:50:57;;;;;;;6.88;3.70;;;;;;;17.19;78.96;100338.63;5078221;28;20027;-65
2023/06/29 03:53:23;;;;;;;4.68;2.72;;;;;;;17.13;78.72;100323.09;5067861;28;20471;-66
2023/06/29 03:55:48;;;;;;;6.13;3.20;;;;;;;17.26;78.70;100334.22;5071807;28;20051;-67
2023/06/29 03:58:15;;;;;;;5.00;2.90;;;;;;;17.34;78.08;100341.44;5073444;28;20063;-66
2023/06/29 04:00:41;;;;;;;8.43;3.00;;;;;;;17.33;77.96;100328.91;5056929;28;20076;-66
2023/06/29 04:03:06;;;;;;;4.10;3.20;;;;;;;17.43;77.78;100333.13;5074072;28;20089;-67
2023/06/29 04:05:32;;;;;;;3.90;2.78;;;;;;;17.47;78.08;100330.88;5054022;28;20036;-67
2023/06/29 04:08:02;;;;;;;6.95;3.05;;;;;;;17.42;77.77;100307.00;5076095;28;20119;-67
2023/06/29 04:10:27;;;;;;;6.13;3.00;;;;;;;17.58;77.60;100331.31;5080261;28;20024;-66
2023/06/29 04:12:53;;;;;;;4.47;2.78;;;;;;;17.72;76.77;100337.84;5076644;28;20107;-67
2023/06/29 04:15:18;;;;;;;4.32;2.83;;;;;;;17.77;76.05;100332.75;5070303;28;20031;-66
2023/06/29 04:17:44;;;;;;;4.07;2.95;;;;;;;17.87;75.04;100330.63;5079927;28;20031;-66
2023/06/29 04:20:10;;;;;;;3.15;2.85;;;;;;;18.06;73.67;100338.31;5075981;28;20028;-67
2023/06/29 04:22:35;;;;;;;7.45;2.80;;;;;;;18.15;73.15;100337.19;5078251;28;20064;-67
2023/06/29 04:25:01;;;;;;;4.35;3.10;;;;;;;18.14;72.80;100321.94;5077441;28;20040;-67
2023/06/29 04:27:26;;;;;;;6.88;3.00;;;;;;;18.32;72.65;100341.47;5070624;28;20032;-67
2023/06/29 04:29:51;;;;;;;6.38;2.65;;;;;;;18.26;72.40;100325.91;5070097;28;20153;-66
2023/06/29 04:32:17;;;;;;;5.18;2.88;;;;;;;18.45;72.38;100341.72;5068413;28;20031;-66
2023/06/29 04:34:42;;;;;;;4.72;2.65;;;;;;;18.53;72.24;100352.47;5080592;28;20040;-65
2023/06/29 04:37:09;;;;;;;3.83;3.03;;;;;;;18.58;72.31;100341.91;5059230;28;20122;-66
2023/06/29 04:39:34;;;;;;;5.50;2.85;;;;;;;18.61;72.17;100344.28;5070591;28;20028;-66
2023/06/29 04:42:04;;;;;;;5.28;2.70;;;;;;;18.70;71.84;100345.84;5072003;28;20069;-65
2023/06/29 04:44:31;;;;;;;5.13;2.80;;;;;;;18.71;71.88;100339.41;5072646;28;20020;-66
2023/06/29 04:47:00;;;;;;;7.85;2.65;;;;;;;18.77;71.36;100348.69;5075761;28;20020;-66
2023/06/29 04:49:27;;;;;;;5.72;2.65;;;;;;;18.81;70.91;100344.56;5079028;28;20040;-66
2023/06/29 04:51:55;;;;;;;2.63;2.20;;;;;;;18.78;70.69;100334.91;5078587;28;20032;-66
2023/06/29 04:54:21;;;;;;;4.68;2.47;;;;;;;18.91;70.33;100350.56;5077400;28;20028;-65
2023/06/29 04:56:47;;;;;;;4.28;2.40;;;;;;;18.97;70.36;100350.66;5074847;28;20396;-66
2023/06/29 04:59:12;;;;;;;4.88;2.50;;;;;;;19.05;70.36;100353.28;5076425;28;20074;-66
2023/06/29 05:01:38;;;;;;;3.15;2.10;;;;;;;19.16;69.28;100352.81;5056653;28;20032;-66
2023/06/29 05:04:03;;;;;;;4.93;2.10;;;;;;;19.30;67.92;100341.09;5075955;28;20040;-66
2023/06/29 05:06:29;;;;;;;3.47;2.40;;;;;;;19.42;66.92;100355.91;5076962;28;20892;-67
2023/06/29 05:08:57;;;;;;;2.78;2.30;;;;;;;19.48;66.77;100349.69;5075453;28;20116;-66
2023/06/29 05:11:22;;;;;;;6.68;2.83;;;;;;;19.65;66.57;100353.03;5082249;28;20070;-66
2023/06/29 05:13:48;;;;;;;3.35;1.75;;;;;;;19.74;65.81;100355.41;5079926;28;20488;-66
2023/06/29 05:16:13;;;;;;;6.78;2.53;;;;;;;19.84;65.26;100350.53;5073112;28;20059;-65
2023/06/29 05:18:38;;;;;;;10.82;2.58;;;;;;;19.88;65.18;100345.53;5076631;28;20115;-66
2023/06/29 05:21:04;;;;;;;2.33;1.52;;;;;;;20.00;64.81;100352.97;5074772;28;20365;-66
2023/06/29 05:23:29;;;;;;;6.78;2.72;;;;;;;20.05;64.94;100358.69;5079303;28;20028;-66
2023/06/29 05:25:55;;;;;;;5.90;1.90;;;;;;;20.16;63.80;100360.91;5080415;28;20064;-66
2023/06/29 05:28:20;;;;;;;3.30;1.60;;;;;;;20.18;63.16;100347.97;5081453;28;20036;-66
2023/06/29 05:30:46;;;;;;;2.35;1.77;;;;;;;20.28;63.05;100349.53;5081385;28;20021;-68
2023/06/29 05:33:11;;;;;;;3.70;1.83;;;;;;;20.41;62.42;100352.34;5077247;28;20112;-66
2023/06/29 05:35:37;;;;;;;3.03;1.83;;;;;;;20.46;62.26;100345.28;5083388;28;20040;-67
2023/06/29 05:38:03;;;;;;;5.10;1.88;;;;;;;20.57;61.77;100335.72;5084555;28;20115;-67
2023/06/29 05:40:29;;;;;;;3.45;1.60;;;;;;;20.80;61.38;100358.94;5063577;28;20035;-68
2023/06/29 05:42:55;;;;;;;7.30;2.22;;;;;;;20.72;60.17;100333.72;5075490;28;20028;-69
2023/06/29 05:45:20;;;;;;;9.00;1.80;;;;;;;21.02;58.96;100357.84;5082596;28;20024;-66
2023/06/29 05:47:46;;;;;;;3.00;1.90;;;;;;;20.99;58.71;100341.88;5059192;28;20471;-67
2023/06/29 05:50:12;;;;;;;3.80;1.83;;;;;;;21.20;58.24;100354.59;5077761;28;20036;-66
2023/06/29 05:52:37;;;;;;;5.10;1.80;;;;;;;21.31;57.37;100356.78;5064056;28;20173;-66
2023/06/29 05:55:03;;;;;;;3.85;2.33;;;;;;;21.39;56.89;100359.31;5079773;28;20506;-67
2023/06/29 05:57:29;;;;;;;3.00;1.75;;;;;;;21.44;56.32;100344.00;5080231;28;20048;-66
2023/06/29 05:59:55;;;;;;;5.18;1.73;;;;;;;21.50;55.77;100345.94;5086854;28;20054;-66
2023/06/29 06:02:20;;;;;;;4.45;2.05;;;;;;;21.64;55.56;100355.84;5087297;28;20479;-68
2023/06/29 06:04:46;;;;;;;4.85;1.60;;;;;;;21.69;55.57;100353.34;5078113;28;20418;-67
2023/06/29 06:07:14;;;;;;;3.83;1.75;;;;;;;21.70;55.40;100346.81;5078070;28;20024;-66
2023/06/29 06:09:40;;;;;;;5.10;1.90;;;;;;;21.84;55.21;100365.00;5082377;28;20020;-67
2023/06/29 06:12:06;;;;;;;5.35;1.70;;;;;;;21.95;54.31;100369.84;5078389;28;20036;-67
2023/06/29 06:14:31;;;;;;;3.53;1.60;;;;;;;21.97;54.38;100366.91;5071792;28;20031;-67
2023/06/29 06:16:56;;;;;;;4.18;1.75;;;;;;;21.99;54.72;100365.63;5075341;28;20107;-67
2023/06/29 06:19:22;;;;;;;6.55;1.80;;;;;;;22.04;55.27;100370.47;5078565;28;20027;-67
2023/06/29 06:21:47;;;;;;;3.15;1.98;;;;;;;22.15;55.11;100372.59;5084085;28;20060;-67
2023/06/29 06:24:13;;;;;;;5.63;1.95;;;;;;;22.17;54.56;100357.69;5079165;28;20036;-66
2023/06/29 06:26:38;;;;;;;8.60;2.10;;;;;;;22.28;54.05;100362.53;5071793;28;20033;-67
2023/06/29 06:29:04;;;;;;;3.88;1.92;;;;;;;22.33;53.93;100348.25;5073264;28;20035;-67
2023/06/29 06:31:29;;;;;;;5.95;1.80;;;;;;;22.38;53.68;100348.47;5069954;28;20037;-67
2023/06/29 06:33:57;;;;;;;4.47;1.80;;;;;;;22.47;54.07;100358.13;5074271;28;20063;-67
2023/06/29 06:36:24;;;;;;;2.80;1.60;;;;;;;22.43;54.02;100332.25;5080858;28;20035;-66
2023/06/29 06:38:50;;;;;;;3.60;1.80;;;;;;;22.60;53.92;100349.94;5077723;28;20024;-67
2023/06/29 06:41:16;;;;;;;3.40;1.77;;;;;;;22.70;53.38;100352.25;5079995;28;20039;-67
2023/06/29 06:43:41;;;;;;;10.32;2.10;;;;;;;22.76;53.47;100354.97;5073947;28;20028;-66
2023/06/29 06:46:07;;;;;;;2.95;1.67;;;;;;;22.87;53.02;100340.69;5075969;28;20027;-67
2023/06/29 06:48:32;;;;;;;3.55;2.10;;;;;;;23.00;52.58;100348.84;5077630;28;20030;-68
2023/06/29 06:50:57;;;;;;;3.55;1.85;;;;;;;23.01;52.85;100345.06;5073436;28;20029;-66
2023/06/29 06:53:23;;;;;;;5.22;1.60;;;;;;;23.09;52.63;100349.47;5075850;28;20094;-67
2023/06/29 06:55:48;;;;;;;5.35;1.67;;;;;;;22.96;52.81;100333.91;5077463;28;20118;-67
2023/06/29 06:58:14;;;;;;;3.17;1.75;;;;;;;23.20;52.15;100357.84;5071883;28;20115;-67
2023/06/29 07:00:39;;;;;;;3.53;1.63;;;;;;;23.25;52.43;100349.03;5076785;28;20056;-67
2023/06/29 07:03:05;;;;;;;2.53;1.67;;;;;;;23.37;52.12;100355.50;5074787;28;20024;-67
2023/06/29 07:05:30;;;;;;;3.63;1.73;;;;;;;23.37;51.94;100353.59;5074924;28;20035;-65
2023/06/29 07:07:56;;;;;;;3.25;1.77;;;;;;;23.41;51.99;100357.56;5068228;28;20032;-67
2023/06/29 07:10:21;;;;;;;3.47;1.95;;;;;;;23.51;51.19;100348.91;5076822;28;20048;-67
2023/06/29 07:12:47;;;;;;;4.97;1.73;;;;;;;23.57;50.77;100348.06;5080217;28;20063;-67
2023/06/29 07:15:12;;;;;;;3.70;1.70;;;;;;;23.64;51.12;100355.16;5069009;28;20024;-66
2023/06/29 07:17:38;;;;;;;4.25;1.95;;;;;;;23.72;50.17;100352.19;5072059;28;20024;-66
2023/06/29 07:20:10;;;;;;;2.50;1.65;;;;;;;23.66;50.54;100342.09;5071633;28;20032;-70
2023/06/29 07:22:36;;;;;;;3.10;2.10;;;;;;;23.72;50.33;100352.19;5079118;28;20107;-67
2023/06/29 07:25:03;;;;;;;4.15;2.13;;;;;;;23.78;50.36;100353.19;5078745;28;20159;-67
2023/06/29 07:27:28;;;;;;;4.90;2.03;;;;;;;23.85;50.46;100348.53;5073172;28;20036;-66
2023/06/29 07:29:54;;;;;;;4.10;1.90;;;;;;;23.92;49.63;100347.44;5073857;28;20495;-67
2023/06/29 07:32:19;;;;;;;6.93;2.13;;;;;;;24.00;50.22;100354.59;5076082;28;20032;-65
2023/06/29 07:34:44;;;;;;;3.50;1.73;;;;;;;24.08;49.81;100343.34;5058596;28;20505;-68
2023/06/29 07:37:10;;;;;;;4.35;1.90;;;;;;;24.01;50.42;100346.16;5080001;28;20105;-68
2023/06/29 07:39:35;;;;;;;5.88;1.77;;;;;;;24.03;50.57;100341.31;5080404;28;20035;-66
2023/06/29 07:42:00;;;;;;;5.65;2.20;;;;;;;24.11;50.02;100351.97;5077479;28;20029;-67
2023/06/29 07:44:27;;;;;;;3.97;2.05;;;;;;;24.15;49.84;100353.22;5054713;28;20027;-67
2023/06/29 07:46:53;;;;;;;3.08;1.67;;;;;;;24.21;49.37;100357.81;5082926;28;20016;-66
2023/06/29 07:49:18;;;;;;;3.72;1.77;;;;;;;24.26;49.45;100354.41;5077542;28;20093;-67
2023/06/29 07:51:44;;;;;;;2.95;1.75;;;;;;;24.27;49.44;100345.97;5076129;28;20023;-66
2023/06/29 07:54:09;;;;;;;4.07;1.80;;;;;;;24.32;48.63;100343.38;5073062;28;20028;-67
2023/06/29 07:56:34;;;;;;;4.38;1.98;;;;;;;24.47;48.39;100350.47;5077423;28;20457;-66
2023/06/29 07:59:00;;;;;;;2.90;1.40;;;;;;;24.51;47.70;100341.56;5070085;28;20039;-67
2023/06/29 08:01:28;;;;;;;3.88;1.80;;;;;;;24.61;47.97;100346.53;5053051;28;20028;-71
2023/06/29 08:03:54;;;;;;;2.80;1.58;;;;;;;24.67;47.63;100335.53;5073198;28;20081;-67
2023/06/29 08:06:19;;;;;;;4.10;1.63;;;;;;;24.74;47.43;100339.06;5076001;28;20028;-67
2023/06/29 08:08:45;;;;;;;3.25;1.90;;;;;;;24.73;47.82;100345.59;5072156;28;20032;-67
2023/06/29 08:11:16;;;;;;;6.95;2.05;;;;;;;24.62;48.13;100327.09;5070219;28;20045;-69
2023/06/29 08:13:41;;;;;;;4.53;1.70;;;;;;;24.58;48.26;100323.13;5067628;28;20016;-67
2023/06/29 08:16:25;;;;;;;3.20;2.10;;;;;;;24.61;48.45;100327.31;5079454;28;20488;-71
2023/06/29 08:18:50;;;;;;;1.85;1.63;;;;;;;24.70;48.76;100345.22;5078040;28;20380;-68
2023/06/29 08:21:23;;;;;;;2.70;1.80;;;;;;;24.57;48.20;100310.50;5077032;28;20081;-67
2023/06/29 08:23:50;;;;;;;2.97;2.15;;;;;;;24.72;48.81;100321.13;5075520;28;20111;-69
2023/06/29 08:26:17;;;;;;;4.05;1.80;;;;;;;24.93;47.71;100338.03;5064246;28;20131;-67
2023/06/29 08:28:42;;;;;;;3.90;2.05;;;;;;;24.99;47.65;100331.59;5074910;28;20047;-66
2023/06/29 08:31:08;;;;;;;3.40;1.90;;;;;;;25.00;48.07;100333.31;5078000;28;20019;-67
2023/06/29 08:33:33;;;;;;;2.83;1.98;;;;;;;25.10;47.49;100343.75;5076898;28;20019;-66
2023/06/29 08:35:58;;;;;;;4.00;2.22;;;;;;;25.13;47.59;100330.41;5084798;28;20373;-67
2023/06/29 08:38:24;;;;;;;4.55;1.90;;;;;;;25.18;47.86;100333.28;5084844;28;20103;-67
2023/06/29 08:40:49;;;;;;;2.47;1.70;;;;;;;25.22;46.77;100333.69;5057202;28;20070;-67
2023/06/29 08:43:16;;;;;;;3.47;1.65;;;;;;;25.12;46.90;100316.91;5074464;28;20036;-67
2023/06/29 08:45:42;;;;;;;3.17;1.55;;;;;;;25.22;47.02;100326.31;5070114;28;20500;-67
2023/06/29 08:48:09;;;;;;;3.85;1.70;;;;;;;25.27;47.25;100340.16;5074141;28;20102;-69
2023/06/29 08:50:37;;;;;;;3.22;1.90;;;;;;;25.24;47.44;100328.81;5072552;28;20020;-68
2023/06/29 08:53:03;;;;;;;4.18;1.75;;;;;;;25.31;47.16;100340.59;5072591;28;20036;-68
2023/06/29 08:55:29;;;;;;;2.20;1.50;;;;;;;25.27;46.88;100329.19;5058999;28;20069;-68
2023/06/29 08:57:54;;;;;;;5.88;1.90;;;;;;;25.32;46.77;100334.03;5080599;28;20058;-67
2023/06/29 09:00:22;;;;;;;2.53;1.58;;;;;;;25.31;46.50;100329.59;5076467;28;20024;-68
2023/06/29 09:02:51;;;;;;;3.25;1.70;;;;;;;25.43;46.40;100330.50;5076434;28;20047;-67
2023/06/29 09:05:17;;;;;;;4.65;1.80;;;;;;;25.52;46.83;100335.47;5068902;28;20032;-68
2023/06/29 09:07:43;;;;;;;4.07;1.70;;;;;;;25.58;47.04;100339.19;5072823;28;20127;-67
2023/06/29 09:10:10;;;;;;;3.28;1.77;;;;;;;25.59;45.81;100332.59;5076707;28;20028;-68
2023/06/29 09:12:36;;;;;;;2.60;1.50;;;;;;;25.66;45.68;100336.94;5064798;28;20454;-68
2023/06/29 09:15:11;;;;;;;4.85;1.95;;;;;;;25.71;46.27;100333.50;5073931;28;20033;-67
2023/06/29 09:17:36;;;;;;;2.63;1.83;;;;;;;25.74;46.41;100328.41;5056146;28;20407;-68
2023/06/29 09:20:08;;;;;;;3.38;2.10;;;;;;;25.78;46.56;100331.50;5077953;28;20020;-69
2023/06/29 09:22:33;;;;;;;3.70;2.20;;;;;;;25.80;45.91;100324.69;5049156;28;20407;-68
2023/06/29 09:24:59;;;;;;;2.95;2.03;;;;;;;25.70;45.89;100320.84;5084785;28;20036;-67
2023/06/29 09:27:26;;;;;;;6.63;2.35;;;;;;;25.58;46.33;100300.72;5076093;28;20055;-67
2023/06/29 09:29:53;;;;;;;3.30;2.25;;;;;;;25.65;46.87;100317.94;5074283;28;20024;-68
2023/06/29 09:32:19;;;;;;;4.32;2.03;;;;;;;25.67;47.15;100326.81;5078617;28;20035;-66
2023/06/29 09:34:50;;;;;;;3.05;2.05;;;;;;;25.64;46.85;100314.38;5074565;28;20383;-72
2023/06/29 09:37:16;;;;;;;5.95;2.40;;;;;;;25.68;46.66;100323.84;5080819;28;20110;-68
2023/06/29 09:39:57;;;;;;;4.72;2.25;;;;;;;25.64;46.84;100330.03;5078745;28;20150;-69
2023/06/29 09:42:23;;;;;;;4.43;2.08;;;;;;;25.57;46.92;100321.84;5077315;28;20031;-68
2023/06/29 09:44:49;;;;;;;5.20;1.95;;;;;;;25.53;47.13;100326.13;5074780;28;20396;-68
2023/06/29 09:47:17;;;;;;;3.60;2.00;;;;;;;25.52;47.22;100323.63;5086908;28;20031;-69
2023/06/29 09:49:49;;;;;;;5.00;2.30;;;;;;;25.50;47.44;100321.09;5085127;28;20028;-69
2023/06/29 09:52:16;;;;;;;3.92;1.83;;;;;;;25.48;47.76;100312.28;5071401;28;20043;-67
2023/06/29 09:54:42;;;;;;;4.60;2.20;;;;;;;25.48;47.53;100305.94;5082425;28;20039;-68
2023/06/29 09:57:12;;;;;;;4.80;2.03;;;;;;;25.49;47.84;100318.59;5081614;28;20020;-69
2023/06/29 09:59:41;;;;;;;6.25;1.98;;;;;;;25.57;47.17;100327.34;5078984;28;20024;-68
2023/06/29 10:02:11;;;;;;;3.65;2.30;;;;;;;25.62;46.43;100318.41;5076207;28;20039;-67
2023/06/29 10:04:39;;;;;;;4.47;2.15;;;;;;;25.64;46.54;100322.63;5084857;28;20039;-68
2023/06/29 10:07:12;;;;;;;4.00;2.20;;;;;;;25.64;46.93;100311.63;5073190;28;20059;-69
2023/06/29 10:09:42;;;;;;;2.60;2.13;;;;;;;25.65;46.98;100309.72;5074312;28;20406;-68
2023/06/29 10:12:10;;;;;;;4.25;2.28;;;;;;;25.58;47.25;100301.56;5076691;28;20044;-69
2023/06/29 10:14:37;;;;;;;4.25;2.03;;;;;;;25.70;47.04;100309.88;5085652;28;20020;-69
2023/06/29 10:17:09;;;;;;;4.40;2.28;;;;;;;25.68;46.98;100301.84;5078679;28;20089;-68
2023/06/29 10:19:36;;;;;;;4.50;1.83;;;;;;;25.72;46.60;100302.19;5075831;28;20020;-68
2023/06/29 10:22:15;;;;;;;4.70;1.92;;;;;;;25.83;46.03;100302.25;5071587;28;20047;-68
2023/06/29 10:24:54;;;;;;;3.20;2.28;;;;;;;25.86;46.82;100306.47;5071866;28;20487;-68
2023/06/29 10:27:21;;;;;;;3.53;2.10;;;;;;;25.77;46.74;100289.47;5077603;28;20024;-69
2023/06/29 10:29:48;;;;;;;3.20;1.77;;;;;;;25.85;46.51;100286.38;5069029;28;20048;-68
2023/06/29 10:32:30;;;;;;;3.85;2.00;;;;;;;26.05;45.91;100308.09;5074653;28;20024;-69
2023/06/29 10:35:14;;;;;;;3.30;2.00;;;;;;;26.15;45.35;100298.19;5076571;28;20070;-68
2023/06/29 10:37:44;;;;;;;3.13;1.60;;;;;;;26.16;45.15;100290.78;5077536;28;20583;-70
2023/06/29 10:40:15;;;;;;;3.35;1.85;;;;;;;26.32;45.15;100309.34;5080123;28;20089;-68
2023/06/29 10:42:41;;;;;;;3.05;1.85;;;;;;;26.33;45.46;100313.78;5080236;28;20379;-69
2023/06/29 10:45:18;;;;;;;5.57;2.05;;;;;;;26.32;45.46;100306.59;5085889;28;20030;-69
2023/06/29 10:47:57;;;;;;;3.85;2.25;;;;;;;26.22;45.64;100300.84;5069783;28;20036;-68
2023/06/29 10:50:27;;;;;;;2.47;1.73;;;;;;;26.24;45.67;100309.69;5070687;28;20107;-68
2023/06/29 10:52:58;;;;;;;2.55;1.75;;;;;;;26.25;45.51;100303.94;5059051;28;20119;-68
2023/06/29 10:55:26;;;;;;;3.75;2.05;;;;;;;26.29;44.41;100298.81;5079638;28;20027;-69
2023/06/29 10:57:54;;;;;;;3.22;2.20;;;;;;;26.26;44.50;100293.78;5085893;28;20031;-68
2023/06/29 11:00:20;;;;;;;1.60;1.50;;;;;;;26.25;44.34;100292.94;5081658;28;20462;-68
2023/06/29 11:02:50;;;;;;;5.88;1.73;;;;;;;26.24;44.21;100288.53;5078480;28;20051;-69
2023/06/29 11:05:20;;;;;;;3.67;2.10;;;;;;;26.30;44.42;100281.22;5074192;28;20025;-68
2023/06/29 11:07:51;;;;;;;3.67;2.38;;;;;;;26.36;45.00;100296.78;5061829;28;20035;-69
2023/06/29 11:10:21;;;;;;;3.13;1.92;;;;;;;26.42;45.18;100295.84;5072723;28;20036;-69
2023/06/29 11:12:49;;;;;;;2.13;1.92;;;;;;;26.44;44.18;100291.78;5068772;28;20022;-68
2023/06/29 11:15:17;;;;;;;2.88;1.70;;;;;;;26.46;44.41;100292.38;5065590;28;20036;-68
2023/06/29 11:17:44;;;;;;;2.15;1.58;;;;;;;26.52;44.61;100288.69;5070614;28;20111;-69
2023/06/29 11:20:14;;;;;;;3.30;1.92;;;;;;;26.57;44.47;100285.22;5059645;28;20578;-69
2023/06/29 11:22:43;;;;;;;5.32;2.05;;;;;;;26.58;44.61;100289.63;5069444;28;20055;-69